Svratouch, Czech Republic

11:00 PM CEST on September 20, 2014 (GMT +0200)
Penzion Stansky mlyn | Change Station
CLOSE
Current Station
Personal Weather Station
Location: Hlinsko, PARDUBICKý KRAJ
Elevation: 1811 ft
Nearby Weather Stations

Elev 1811 ft 49.75 °N, 15.87 °E | Updated 7 seconds ago

Scattered Clouds
Scattered Clouds
57.7 °F
Feels Like 57.7 °F
N
0.0
Wind Variable Wind from North
Gusts 0.0 mph

Today
High -- | Low -- °F
--% Chance of Precip.
Yesterday
High -- | Low -- °F
Precip. -- in
6:38 AM 6:58 PM
Waning Crescent, 10% visible
Pressure 29.95 in
Visibility 6.2 miles
Clouds Few 800 ft
Scattered Clouds 4600 ft
Dew Point 57 °F
Humidity 97%
Rainfall 0.24 in
Snow Depth Not available.
UV 0 out of 12
Pollen Not available.
Air Quality Not available.
Flu Activity Not available.
METAR LKTB 202030Z 22004KT 9999 VCSH FEW008 SCT046 17/15 Q1014 RETS NOSIG

More Conditions Fewer Conditions

Pressure 29.95 in
Visibility 6.2 miles
Clouds Few 800 ft
Scattered Clouds 4600 ft
Dew Point 57 °F
Humidity 97%
Rainfall 0.24 in
Snow Depth Not available.
UV 0 out of 12
Pollen Not available.
Air Quality Not available.
Flu Activity Not available.
METAR LKTB 202030Z 22004KT 9999 VCSH FEW008 SCT046 17/15 Q1014 RETS NOSIG

More Conditions Fewer Conditions

10-Day Weather Forecast

Almanac

Astronomy

Sep. 20, 2014 Rise Set
Actual Time 6:38 AM CEST 6:58 PM CEST
Civil Twilight 6:06 AM CEST 7:30 PM CEST
Nautical Twilight 5:28 AM CEST 8:08 PM CEST
Astronomical Twilight 4:48 AM CEST 8:48 PM CEST
Moon 2:45 AM CEST 5:06 PM CEST
Length of Visible Light 13h 24m
Length of Day
12h 19m
Tomorrow will be 3m 41s shorter.
Waning Crescent, 10% of the Moon is Illuminated
Today
Waning Crescent
Sep 24
New
Oct 1
First Quarter
Oct 8
Full
Oct 15
Last Quarter

Today's Extremes

Country Highs Country Lows

Community

WunderPhotos

Upload Photos

1,754,947 photos uploaded!

WunderBlogs® & News

Nearby

Snow Depth

Not available.

Earthquake Activity

City Distance Mag. Time & Date
No recent earthquake activity has been reported nearby.
Minimum magnitude displayed is 2.5.

Coastal Water Temperatures

Place Temperature
No Stations Reporting

Nearby Weather Stations